Time;durP1;ratioP1;P1;durP2;ratioP2;P2;SDS_P1;SDS_P2;PMS_P1;PMS_P2;Temp;Humidity;BMP_temperature;BMP_pressure;BME280_temperature;BME280_humidity;BME280_pressure;Samples;Min_cycle;Max_cycle;Signal;HPM_P1;HPM_P2
2023/09/09 00:01:09;;;;;;;6.22;4.70;;;;;;;22.80;48.75;98748.06;5122326;27;20054;-93
2023/09/09 00:03:35;;;;;;;6.65;3.67;;;;;;;23.08;48.05;98758.50;5121714;27;20031;-93
2023/09/09 00:06:07;;;;;;;5.15;3.78;;;;;;;22.99;48.27;98748.34;5123266;27;20047;-93
2023/09/09 00:08:34;;;;;;;7.97;4.03;;;;;;;22.68;49.36;98748.00;5122715;27;20492;-93
2023/09/09 00:11:00;;;;;;;6.53;4.22;;;;;;;22.79;49.55;98752.59;5123687;27;20058;-92
2023/09/09 00:13:26;;;;;;;8.82;4.57;;;;;;;22.69;49.45;98732.63;5123285;27;20035;-94
2023/09/09 00:15:53;;;;;;;7.43;5.10;;;;;;;22.76;48.88;98694.06;5123214;27;20404;-93
2023/09/09 00:18:19;;;;;;;7.07;4.03;;;;;;;22.98;49.44;98752.03;5123449;27;20483;-95
2023/09/09 00:20:45;;;;;;;6.97;4.03;;;;;;;22.65;49.22;98695.91;5122784;27;20095;-92
2023/09/09 00:23:12;;;;;;;8.20;4.53;;;;;;;23.09;48.74;98724.09;5122578;27;20126;-92
2023/09/09 00:25:41;;;;;;;8.13;4.10;;;;;;;23.27;48.48;98722.66;5123565;27;20092;-95
2023/09/09 00:28:08;;;;;;;5.53;3.92;;;;;;;23.10;49.32;98744.81;5123126;27;20027;-94
2023/09/09 00:30:34;;;;;;;6.72;3.88;;;;;;;22.95;48.67;98679.06;5123444;27;20039;-92
2023/09/09 00:33:00;;;;;;;6.15;4.15;;;;;;;23.16;48.98;98728.03;5122707;27;20039;-94
2023/09/09 00:35:26;;;;;;;5.32;3.58;;;;;;;23.55;47.73;98728.53;5123514;27;20035;-93
2023/09/09 00:37:52;;;;;;;6.05;3.78;;;;;;;23.26;48.38;98711.91;5120977;27;20073;-93
2023/09/09 00:40:18;;;;;;;5.50;3.72;;;;;;;23.31;48.16;98715.09;5138444;27;20031;-93
2023/09/09 00:42:45;;;;;;;6.57;4.22;;;;;;;23.35;48.06;98711.16;5122716;27;20083;-94
2023/09/09 00:45:11;;;;;;;8.02;4.15;;;;;;;23.44;47.71;98707.69;5121040;27;20043;-93
2023/09/09 00:47:38;;;;;;;6.50;3.80;;;;;;;22.89;49.06;98717.50;5122583;27;20039;-92
2023/09/09 00:50:08;;;;;;;6.90;4.30;;;;;;;23.42;48.44;98752.22;5122535;27;20078;-94
2023/09/09 00:52:36;;;;;;;8.13;4.47;;;;;;;23.41;48.25;98732.38;5121611;27;20071;-93
2023/09/09 00:55:02;;;;;;;5.20;3.58;;;;;;;22.94;49.24;98746.00;5121793;27;20039;-93
2023/09/09 00:57:28;;;;;;;5.88;4.28;;;;;;;22.73;49.97;98742.25;5121238;27;20131;-95
2023/09/09 00:59:55;;;;;;;6.15;3.60;;;;;;;22.94;49.02;98724.31;5122369;27;20062;-94
2023/09/09 01:02:21;;;;;;;6.53;4.30;;;;;;;22.93;49.20;98716.28;5123690;27;20523;-93
2023/09/09 01:04:49;;;;;;;5.22;3.42;;;;;;;22.97;48.42;98686.09;5121540;27;20039;-93
2023/09/09 01:07:14;;;;;;;9.02;4.20;;;;;;;23.06;49.23;98735.19;5121730;27;20040;-93
2023/09/09 01:09:40;;;;;;;8.27;4.18;;;;;;;23.07;48.95;98715.22;5121887;27;20057;-93
2023/09/09 01:12:11;;;;;;;6.03;4.03;;;;;;;23.05;48.83;98690.06;5121944;27;20054;-92
2023/09/09 01:14:37;;;;;;;6.78;4.03;;;;;;;23.02;49.13;98718.28;5121155;27;20043;-95
2023/09/09 01:17:05;;;;;;;9.23;4.10;;;;;;;23.41;48.15;98731.53;5120167;27;20400;-94
2023/09/09 01:19:32;;;;;;;7.07;4.20;;;;;;;23.11;48.78;98719.41;5121294;27;20116;-93
2023/09/09 01:22:08;;;;;;;7.07;4.43;;;;;;;22.30;50.96;98699.50;5122512;27;20053;-95
2023/09/09 01:24:35;;;;;;;6.70;3.95;;;;;;;22.74;49.63;98696.03;5120101;27;20496;-93
2023/09/09 01:27:01;;;;;;;7.05;4.00;;;;;;;22.90;50.09;98735.50;5137228;27;20054;-94
2023/09/09 01:29:27;;;;;;;6.28;4.20;;;;;;;22.94;49.93;98735.16;5120786;27;20035;-94
2023/09/09 01:31:52;;;;;;;6.30;3.72;;;;;;;22.66;49.63;98657.84;5122375;27;20488;-92
2023/09/09 01:34:18;;;;;;;6.93;4.25;;;;;;;22.65;49.95;98671.50;5121252;27;20110;-93
2023/09/09 01:36:44;;;;;;;9.40;3.83;;;;;;;23.16;49.51;98712.66;5121823;27;20588;-94
2023/09/09 01:39:10;;;;;;;7.28;3.55;;;;;;;23.24;49.29;98735.59;5121349;27;20046;-93
2023/09/09 01:41:37;;;;;;;7.70;4.15;;;;;;;22.82;49.46;98670.19;5121782;27;20032;-94
2023/09/09 01:44:03;;;;;;;5.35;3.55;;;;;;;23.32;48.68;98723.13;5121202;27;20059;-93
2023/09/09 01:46:29;;;;;;;6.03;4.55;;;;;;;23.05;49.65;98719.91;5120869;27;20430;-92
2023/09/09 01:48:55;;;;;;;8.82;3.38;;;;;;;22.89;49.72;98698.53;5121111;27;20047;-93
2023/09/09 01:51:21;;;;;;;6.28;3.92;;;;;;;22.94;49.71;98702.63;5121743;27;20035;-94
2023/09/09 01:53:47;;;;;;;6.88;3.78;;;;;;;23.08;49.22;98709.69;5120667;27;20039;-95
2023/09/09 01:56:12;;;;;;;11.57;4.63;;;;;;;23.23;48.96;98721.16;5119395;27;20427;-92
2023/09/09 01:58:40;;;;;;;6.95;4.25;;;;;;;22.98;49.61;98724.91;5120634;27;20051;-93
2023/09/09 02:01:05;;;;;;;5.55;3.72;;;;;;;22.77;50.26;98695.81;5120112;27;20031;-95
2023/09/09 02:03:31;;;;;;;6.03;3.70;;;;;;;22.63;50.84;98708.72;5119955;27;20103;-94
2023/09/09 02:05:58;;;;;;;6.28;3.75;;;;;;;22.44;51.14;98672.19;5119839;27;20048;-92
2023/09/09 02:08:23;;;;;;;6.82;4.28;;;;;;;22.37;51.46;98708.00;5130262;27;20039;-94
2023/09/09 02:10:50;;;;;;;6.45;4.15;;;;;;;22.76;50.85;98726.59;5119894;27;20093;-94
2023/09/09 02:13:16;;;;;;;6.18;3.70;;;;;;;22.66;50.83;98722.00;5119202;28;20101;-93
2023/09/09 02:15:43;;;;;;;5.72;4.07;;;;;;;22.59;50.43;98686.38;5119874;28;20046;-94
2023/09/09 02:18:09;;;;;;;6.07;3.80;;;;;;;22.54;50.88;98705.72;5120157;28;20045;-93
2023/09/09 02:20:35;;;;;;;5.03;3.47;;;;;;;22.29;51.67;98700.44;5120239;28;20027;-95
2023/09/09 02:23:01;;;;;;;7.28;5.25;;;;;;;22.83;51.14;98723.41;5120076;28;20468;-92
2023/09/09 02:25:27;;;;;;;4.97;3.58;;;;;;;22.89;50.54;98729.22;5138372;28;20027;-94
2023/09/09 02:27:52;;;;;;;5.55;3.67;;;;;;;22.42;51.66;98709.38;5121064;28;20054;-93
2023/09/09 02:30:18;;;;;;;5.68;4.50;;;;;;;22.53;51.42;98724.78;5119347;28;20520;-94
2023/09/09 02:32:46;;;;;;;5.05;3.65;;;;;;;22.74;50.64;98728.56;5118966;28;20047;-94
2023/09/09 02:35:11;;;;;;;5.70;4.00;;;;;;;22.52;51.21;98712.25;5121322;27;20043;-94
2023/09/09 02:37:37;;;;;;;5.45;3.67;;;;;;;22.36;52.09;98709.84;5125179;27;20043;-94
2023/09/09 02:40:04;;;;;;;7.93;3.97;;;;;;;22.13;52.67;98723.25;5126094;27;20031;-94
2023/09/09 02:42:30;;;;;;;6.70;3.92;;;;;;;22.39;52.71;98728.56;5124617;27;20039;-93
2023/09/09 02:44:56;;;;;;;6.50;3.85;;;;;;;22.23;52.37;98715.34;5124310;27;20027;-94
2023/09/09 02:47:22;;;;;;;5.50;4.10;;;;;;;22.28;52.19;98709.56;5124377;27;20047;-94
2023/09/09 02:49:50;;;;;;;7.20;4.10;;;;;;;22.29;52.21;98720.31;5124318;27;20039;-94
2023/09/09 02:52:15;;;;;;;5.18;4.03;;;;;;;22.17;52.89;98734.72;5125153;27;20078;-94
2023/09/09 02:54:41;;;;;;;7.93;4.40;;;;;;;21.74;53.88;98698.19;5124824;27;20481;-93
2023/09/09 02:57:07;;;;;;;7.63;4.47;;;;;;;21.81;53.79;98724.81;5124628;27;20039;-94
2023/09/09 02:59:36;;;;;;;7.65;4.28;;;;;;;22.03;53.10;98727.63;5124476;27;20031;-94
2023/09/09 03:02:03;;;;;;;6.03;3.90;;;;;;;22.38;51.78;98716.03;5123878;27;20031;-93
2023/09/09 03:04:29;;;;;;;5.80;4.15;;;;;;;22.29;51.89;98711.28;5124441;27;20134;-94
2023/09/09 03:06:56;;;;;;;7.22;3.80;;;;;;;22.77;51.56;98743.75;5124179;27;20047;-94
2023/09/09 03:09:22;;;;;;;8.90;4.60;;;;;;;22.36;52.09;98704.44;5122755;27;20046;-93
2023/09/09 03:11:48;;;;;;;7.85;4.03;;;;;;;22.58;51.95;98738.03;5123855;27;20039;-93
2023/09/09 03:14:14;;;;;;;7.70;4.32;;;;;;;22.04;52.46;98701.44;5124011;27;20488;-95
2023/09/09 03:16:39;;;;;;;5.78;3.60;;;;;;;21.62;53.65;98696.41;5123895;27;20045;-94
2023/09/09 03:19:05;;;;;;;5.88;5.05;;;;;;;21.68;53.72;98712.16;5139388;27;20377;-94
2023/09/09 03:21:31;;;;;;;6.30;3.70;;;;;;;21.73;53.13;98688.34;5125017;27;20050;-94
2023/09/09 03:23:58;;;;;;;7.45;3.83;;;;;;;22.13;53.08;98728.66;5123457;27;20031;-94
2023/09/09 03:26:24;;;;;;;6.40;3.63;;;;;;;22.12;51.97;98671.91;5123300;27;20115;-94
2023/09/09 03:28:50;;;;;;;6.90;3.85;;;;;;;22.77;51.40;98738.31;5123952;27;20071;-95
2023/09/09 03:31:16;;;;;;;7.15;4.82;;;;;;;22.60;51.58;98739.63;5123606;27;20046;-94
2023/09/09 03:33:42;;;;;;;6.32;3.72;;;;;;;22.81;51.61;98723.53;5123327;27;20050;-95
2023/09/09 03:36:08;;;;;;;5.45;4.28;;;;;;;22.38;51.84;98683.50;5123473;27;20437;-95
2023/09/09 03:38:34;;;;;;;7.03;3.50;;;;;;;22.39;52.01;98711.47;5125108;27;20027;-93
2023/09/09 03:41:04;;;;;;;6.53;3.95;;;;;;;21.89;52.87;98696.19;5124592;27;20068;-94
2023/09/09 03:43:29;;;;;;;5.97;3.95;;;;;;;22.22;52.27;98688.34;5123315;27;20061;-93
2023/09/09 03:45:56;;;;;;;6.38;3.83;;;;;;;22.19;51.75;98669.63;5123129;27;20046;-95
2023/09/09 03:48:22;;;;;;;6.22;4.00;;;;;;;22.48;52.12;98699.91;5123374;27;20039;-95
2023/09/09 03:50:48;;;;;;;6.72;3.60;;;;;;;22.38;52.26;98716.03;5123991;27;20054;-94
2023/09/09 03:53:14;;;;;;;7.50;4.40;;;;;;;22.18;52.63;98703.09;5123367;27;20515;-94
2023/09/09 03:55:40;;;;;;;6.25;3.70;;;;;;;22.03;53.37;98722.22;5123595;27;20035;-94
2023/09/09 03:58:07;;;;;;;6.40;3.72;;;;;;;21.93;53.71;98732.88;5123482;27;20039;-93
2023/09/09 04:00:33;;;;;;;6.60;4.13;;;;;;;21.87;53.11;98695.44;5123142;27;20043;-94
2023/09/09 04:03:00;;;;;;;7.28;3.72;;;;;;;22.12;53.21;98731.47;5123516;27;20504;-95
2023/09/09 04:05:26;;;;;;;6.03;3.72;;;;;;;22.21;52.89;98730.81;5123960;27;20031;-93
2023/09/09 04:07:51;;;;;;;6.60;4.10;;;;;;;22.01;53.31;98712.47;5124329;27;20042;-96
2023/09/09 04:10:17;;;;;;;6.28;3.92;;;;;;;22.25;52.79;98721.50;5123156;27;20133;-94
2023/09/09 04:12:43;;;;;;;6.30;4.28;;;;;;;22.24;52.46;98692.69;5121845;27;20060;-94
2023/09/09 04:15:10;;;;;;;6.53;3.58;;;;;;;22.09;53.34;98735.28;5123073;27;20035;-95
2023/09/09 04:17:38;;;;;;;4.65;3.53;;;;;;;21.97;53.82;98719.09;5123752;27;20058;-95
2023/09/09 04:20:06;;;;;;;7.03;4.05;;;;;;;22.10;53.49;98709.97;5121833;27;20043;-94
2023/09/09 04:22:31;;;;;;;5.00;3.58;;;;;;;22.25;53.50;98731.47;5121378;27;20100;-94
2023/09/09 04:24:57;;;;;;;6.50;4.13;;;;;;;22.13;53.79;98733.22;5122901;27;20031;-95
2023/09/09 04:27:23;;;;;;;8.73;4.95;;;;;;;22.15;54.05;98725.84;5122032;27;20488;-95
2023/09/09 04:29:49;;;;;;;6.38;4.32;;;;;;;21.89;54.53;98695.31;5122283;27;20047;-94
2023/09/09 04:32:16;;;;;;;6.25;4.20;;;;;;;21.94;54.92;98733.72;5122022;27;20043;-94
2023/09/09 04:34:42;;;;;;;7.25;5.00;;;;;;;21.85;55.61;98739.84;5122238;27;20035;-94
2023/09/09 04:37:08;;;;;;;10.80;5.40;;;;;;;21.70;55.95;98750.81;5122167;27;20496;-95
2023/09/09 04:39:33;;;;;;;7.22;4.55;;;;;;;21.19;56.89;98718.41;5121776;27;20103;-95
2023/09/09 04:41:59;;;;;;;7.88;4.15;;;;;;;21.13;58.28;98743.19;5121983;27;20039;-95
2023/09/09 04:44:25;;;;;;;5.35;4.03;;;;;;;21.13;58.28;98745.88;5121794;27;20078;-93
2023/09/09 04:46:51;;;;;;;9.02;4.88;;;;;;;20.95;58.96;98747.16;5122893;27;20044;-94
2023/09/09 04:49:18;;;;;;;6.50;4.10;;;;;;;20.88;59.02;98757.56;5139468;27;20043;-95
2023/09/09 04:51:44;;;;;;;5.93;4.68;;;;;;;20.68;59.62;98742.72;5128420;27;20015;-95
2023/09/09 04:54:10;;;;;;;6.97;4.75;;;;;;;20.91;60.03;98762.75;5122994;27;20134;-95
2023/09/09 04:56:36;;;;;;;7.20;4.25;;;;;;;20.89;58.38;98751.19;5120888;27;20041;-94
2023/09/09 04:59:01;;;;;;;6.78;3.97;;;;;;;20.92;59.51;98762.63;5140452;27;20042;-93
2023/09/09 05:01:27;;;;;;;7.35;3.92;;;;;;;20.98;59.59;98758.66;5142068;27;20062;-93
2023/09/09 05:03:53;;;;;;;5.93;3.90;;;;;;;21.22;58.48;98747.94;5124296;27;20140;-94
2023/09/09 05:06:20;;;;;;;6.30;4.15;;;;;;;20.81;58.82;98697.66;5125025;27;20050;-95
2023/09/09 05:08:46;;;;;;;7.00;4.20;;;;;;;20.78;58.91;98697.88;5124092;27;20035;-95
2023/09/09 05:11:12;;;;;;;6.65;4.05;;;;;;;21.03;59.55;98759.19;5124090;27;20064;-94
2023/09/09 05:13:38;;;;;;;6.53;4.20;;;;;;;20.67;58.90;98706.75;5123570;27;20031;-94
2023/09/09 05:16:04;;;;;;;5.60;3.80;;;;;;;20.95;58.17;98772.38;5124716;27;20043;-93
2023/09/09 05:18:30;;;;;;;6.00;4.20;;;;;;;21.18;57.16;98743.72;5125297;27;20039;-95
2023/09/09 05:20:56;;;;;;;7.55;3.88;;;;;;;21.18;56.69;98703.16;5124763;27;20038;-94
2023/09/09 05:23:24;;;;;;;7.35;4.57;;;;;;;21.89;55.98;98760.28;5124508;27;20130;-94
2023/09/09 05:25:49;;;;;;;6.47;4.38;;;;;;;21.37;57.30;98701.84;5124418;27;20039;-93
2023/09/09 05:28:15;;;;;;;5.63;4.00;;;;;;;21.64;55.85;98736.84;5125278;27;20030;-94
2023/09/09 05:30:41;;;;;;;7.85;4.35;;;;;;;21.61;55.64;98758.75;5123853;27;20039;-94
2023/09/09 05:33:07;;;;;;;6.82;3.53;;;;;;;21.74;55.75;98729.81;5124486;27;20043;-95
2023/09/09 05:35:34;;;;;;;7.38;4.05;;;;;;;21.74;55.82;98727.94;5124025;27;20130;-95
2023/09/09 05:38:00;;;;;;;7.47;4.18;;;;;;;21.51;56.74;98705.31;5123744;27;20055;-94
2023/09/09 05:40:27;;;;;;;6.38;4.25;;;;;;;21.58;57.21;98694.91;5123632;27;20181;-95
2023/09/09 05:42:53;;;;;;;9.35;4.80;;;;;;;21.71;57.24;98735.47;5123392;27;20507;-96
2023/09/09 05:45:19;;;;;;;7.25;5.07;;;;;;;21.77;57.46;98742.25;5126202;27;20039;-95
2023/09/09 05:47:45;;;;;;;6.63;4.32;;;;;;;21.77;57.34;98740.38;5138842;27;20046;-95
2023/09/09 05:50:12;;;;;;;6.53;4.15;;;;;;;21.71;54.76;98716.50;5125026;27;20039;-95
2023/09/09 05:52:38;;;;;;;6.45;4.63;;;;;;;22.08;55.31;98720.03;5126202;27;20480;-94
2023/09/09 05:55:04;;;;;;;7.43;4.50;;;;;;;22.29;54.70;98758.22;5142915;27;20035;-94
2023/09/09 05:57:34;;;;;;;7.03;4.40;;;;;;;22.57;55.03;98745.25;5127262;27;20096;-95
2023/09/09 06:00:00;;;;;;;7.15;5.03;;;;;;;22.47;54.91;98706.31;5125439;28;20036;-95
2023/09/09 06:02:26;;;;;;;7.85;4.85;;;;;;;22.62;54.50;98726.81;5126321;27;20047;-95
2023/09/09 06:04:52;;;;;;;9.50;5.47;;;;;;;22.60;53.58;98717.06;5126116;27;20098;-95
2023/09/09 06:07:19;;;;;;;8.13;4.47;;;;;;;22.65;54.03;98721.16;5125013;27;20023;-94
2023/09/09 06:09:45;;;;;;;12.00;6.90;;;;;;;22.63;54.79;98714.97;5121242;28;20405;-95
2023/09/09 06:12:11;;;;;;;10.00;5.95;;;;;;;22.72;55.13;98711.53;5119310;27;20039;-95
2023/09/09 06:14:38;;;;;;;9.68;5.30;;;;;;;23.16;55.36;98756.06;5118395;28;20039;-94
2023/09/09 06:17:04;;;;;;;6.88;4.95;;;;;;;23.16;52.61;98747.03;5117446;27;20472;-94
2023/09/09 06:19:30;;;;;;;5.90;3.80;;;;;;;23.53;51.66;98744.06;5119572;28;20043;-93
2023/09/09 06:21:56;;;;;;;6.10;3.85;;;;;;;23.35;52.81;98730.16;5119072;28;20111;-93
2023/09/09 06:24:21;;;;;;;6.43;3.65;;;;;;;23.60;52.12;98729.03;5127632;28;20042;-94
2023/09/09 06:26:47;;;;;;;6.30;3.78;;;;;;;23.73;51.23;98718.91;5118198;27;20496;-93
2023/09/09 06:29:13;;;;;;;7.88;4.60;;;;;;;24.29;50.02;98764.13;5118278;28;20031;-94
2023/09/09 06:31:41;;;;;;;5.53;3.67;;;;;;;24.52;50.04;98751.31;5117579;28;20039;-93
2023/09/09 06:34:09;;;;;;;6.00;3.63;;;;;;;24.63;48.69;98742.25;5119207;28;20077;-95
2023/09/09 06:36:35;;;;;;;4.32;3.00;;;;;;;24.57;48.63;98764.50;5125260;28;20039;-95
2023/09/09 06:39:03;;;;;;;5.70;3.47;;;;;;;24.57;48.96;98704.69;5121254;28;20047;-95
2023/09/09 06:41:28;;;;;;;5.60;3.65;;;;;;;24.74;48.02;98698.66;5122688;28;20019;-95
2023/09/09 06:43:54;;;;;;;6.22;3.65;;;;;;;25.00;47.93;98766.28;5125121;28;20049;-94
2023/09/09 06:46:23;;;;;;;5.22;3.53;;;;;;;25.19;47.55;98780.03;5120476;28;20052;-94
2023/09/09 06:48:51;;;;;;;6.13;4.13;;;;;;;24.97;47.44;98712.13;5121750;28;20067;-95
2023/09/09 06:51:17;;;;;;;9.02;4.47;;;;;;;25.38;47.84;98775.72;5125027;28;20384;-94
2023/09/09 06:53:43;;;;;;;5.63;3.45;;;;;;;25.26;47.54;98763.16;5121759;28;20047;-95
2023/09/09 06:56:10;;;;;;;4.45;3.42;;;;;;;24.99;46.78;98704.72;5126831;28;20126;-95
2023/09/09 06:58:36;;;;;;;6.70;3.70;;;;;;;24.95;46.53;98697.81;5127712;28;20047;-96
2023/09/09 07:01:02;;;;;;;7.28;4.28;;;;;;;25.27;46.63;98765.75;5122487;28;20077;-94
2023/09/09 07:03:29;;;;;;;5.68;3.30;;;;;;;25.20;46.90;98784.50;5126047;28;20070;-95
2023/09/09 07:05:58;;;;;;;5.53;4.13;;;;;;;25.12;46.79;98721.69;5127776;27;20111;-95
2023/09/09 07:08:24;;;;;;;7.03;3.75;;;;;;;25.16;47.14;98741.31;5124053;28;20035;-94
2023/09/09 07:10:50;;;;;;;5.97;3.92;;;;;;;25.51;46.96;98735.50;5132348;28;20043;-95
2023/09/09 07:13:17;;;;;;;5.00;3.42;;;;;;;25.18;46.74;98755.66;5123912;28;20046;-94
2023/09/09 07:15:43;;;;;;;5.78;3.78;;;;;;;25.56;45.72;98735.09;5126300;28;20146;-95
2023/09/09 07:18:11;;;;;;;6.38;3.58;;;;;;;25.25;45.85;98718.78;5129698;28;20064;-96
2023/09/09 07:20:38;;;;;;;5.95;3.53;;;;;;;25.91;45.75;98759.16;5127867;27;20044;-95
2023/09/09 07:23:05;;;;;;;5.97;4.28;;;;;;;25.68;44.40;98714.06;5131853;27;20408;-95
2023/09/09 07:25:33;;;;;;;5.10;3.13;;;;;;;25.81;45.15;98723.72;5132718;27;20096;-95
2023/09/09 07:27:59;;;;;;;4.75;3.72;;;;;;;25.88;44.96;98728.59;5132936;27;20047;-96
2023/09/09 07:30:26;;;;;;;5.75;4.22;;;;;;;25.82;45.76;98730.00;5134198;27;20044;-95
2023/09/09 07:32:55;;;;;;;4.57;3.70;;;;;;;25.97;45.30;98785.88;5132526;27;20047;-96
2023/09/09 07:35:21;;;;;;;6.32;3.13;;;;;;;26.21;44.72;98776.44;5133618;27;20091;-95
2023/09/09 07:37:47;;;;;;;5.60;3.50;;;;;;;26.37;44.25;98787.69;5128568;27;20047;-94
2023/09/09 07:40:14;;;;;;;6.30;3.55;;;;;;;26.41;43.89;98759.13;5127113;27;20062;-96
2023/09/09 07:42:40;;;;;;;4.55;3.40;;;;;;;26.50;44.17;98757.41;5123800;27;20043;-94
2023/09/09 07:45:07;;;;;;;8.18;3.95;;;;;;;26.68;44.24;98786.75;5123237;27;20096;-95
2023/09/09 07:47:33;;;;;;;7.75;3.88;;;;;;;26.17;44.79;98769.56;5125654;27;20126;-94
2023/09/09 07:50:00;;;;;;;5.35;4.40;;;;;;;26.45;44.64;98776.06;5126239;27;20441;-95
2023/09/09 07:52:26;;;;;;;5.53;3.88;;;;;;;26.39;43.89;98743.91;5127099;27;20035;-96
2023/09/09 07:54:52;;;;;;;4.97;3.10;;;;;;;26.42;44.56;98799.03;5125870;27;20042;-92
2023/09/09 07:57:19;;;;;;;5.10;3.72;;;;;;;26.70;45.26;98779.28;5123195;27;20031;-93
2023/09/09 07:59:45;;;;;;;7.50;3.55;;;;;;;26.46;43.73;98755.09;5123082;27;20045;-95
2023/09/09 08:02:13;;;;;;;5.00;3.30;;;;;;;27.18;43.47;98779.19;5121404;27;20055;-94
2023/09/09 08:04:38;;;;;;;6.95;5.05;;;;;;;27.33;44.03;98776.06;5120998;27;20422;-94
2023/09/09 08:07:04;;;;;;;7.03;3.70;;;;;;;27.14;42.83;98755.94;5124981;27;20044;-95
2023/09/09 08:09:31;;;;;;;5.28;3.42;;;;;;;27.21;43.05;98756.19;5127345;27;20041;-94
2023/09/09 08:11:56;;;;;;;7.25;4.20;;;;;;;27.40;42.51;98764.38;5124516;27;20034;-95
2023/09/09 08:14:24;;;;;;;6.03;3.35;;;;;;;27.56;43.03;98792.91;5124249;27;20035;-94
2023/09/09 08:16:50;;;;;;;8.00;3.95;;;;;;;27.70;42.79;98762.41;5122835;27;20045;-95
2023/09/09 08:19:16;;;;;;;8.23;4.50;;;;;;;27.86;42.80;98783.63;5124868;27;20055;-95
2023/09/09 08:21:42;;;;;;;4.68;3.28;;;;;;;27.81;41.80;98764.06;5122559;27;20049;-96
2023/09/09 08:24:09;;;;;;;5.25;3.50;;;;;;;27.57;41.05;98738.16;5128462;27;20039;-96
2023/09/09 08:26:35;;;;;;;4.28;3.33;;;;;;;27.46;40.61;98732.88;5129694;27;20043;-95
2023/09/09 08:29:01;;;;;;;7.10;3.92;;;;;;;27.19;41.68;98764.53;5129543;27;20040;-95
2023/09/09 08:31:28;;;;;;;4.68;3.22;;;;;;;27.78;40.80;98759.78;5127016;27;20054;-93
2023/09/09 08:33:54;;;;;;;5.25;3.90;;;;;;;27.92;40.75;98802.16;5124018;27;20118;-94
2023/09/09 08:36:20;;;;;;;5.30;3.42;;;;;;;28.11;41.42;98786.69;5124926;27;20511;-95
2023/09/09 08:38:46;;;;;;;5.93;4.07;;;;;;;27.95;41.47;98736.25;5123530;27;20138;-95
2023/09/09 08:41:19;;;;;;;5.00;3.22;;;;;;;28.12;40.29;98739.19;5123182;27;20126;-96
2023/09/09 08:43:54;;;;;;;5.93;3.45;;;;;;;27.81;40.70;98747.69;5124779;27;20139;-96
2023/09/09 08:46:21;;;;;;;6.43;4.13;;;;;;;28.54;39.89;98790.56;5124916;27;20050;-93
2023/09/09 08:48:50;;;;;;;7.30;3.30;;;;;;;28.91;39.12;98795.91;5122199;27;20056;-96
2023/09/09 08:51:17;;;;;;;;;;;;;;;29.27;39.40;98788.50;5122741;27;20071;-94
2023/09/09 08:53:44;;;;;;;4.93;3.28;;;;;;;29.57;39.32;98786.31;5122890;27;19919;-95
2023/09/09 08:56:12;;;;;;;11.57;3.80;;;;;;;29.11;38.95;98791.13;5122867;27;20039;-95
2023/09/09 08:58:40;;;;;;;7.30;3.42;;;;;;;29.63;37.89;98773.84;5138925;27;20049;-94
2023/09/09 09:01:06;;;;;;;4.80;3.30;;;;;;;29.18;38.10;98751.13;5123524;27;20485;-95
2023/09/09 09:03:33;;;;;;;7.20;4.50;;;;;;;29.08;38.33;98786.81;5122435;27;20385;-94
2023/09/09 09:06:02;;;;;;;5.00;3.35;;;;;;;28.49;39.76;98760.97;5118150;27;20036;-94
2023/09/09 09:08:28;;;;;;;6.13;3.92;;;;;;;28.63;39.74;98765.03;5122916;27;20046;-95
2023/09/09 09:10:57;;;;;;;6.93;3.58;;;;;;;28.93;38.21;98727.28;5122533;27;20042;-95
2023/09/09 09:13:23;;;;;;;5.45;3.30;;;;;;;28.73;37.90;98734.84;5122913;27;20076;-96
2023/09/09 09:15:49;;;;;;;4.90;3.25;;;;;;;28.81;38.45;98708.41;5121659;27;20041;-95
2023/09/09 09:18:15;;;;;;;6.88;4.10;;;;;;;29.01;38.99;98721.88;5123801;27;20094;-96
2023/09/09 09:20:40;;;;;;;5.22;3.67;;;;;;;28.93;37.69;98769.25;5122269;27;20077;-95
2023/09/09 09:23:11;;;;;;;5.03;3.25;;;;;;;29.34;37.96;98739.41;5121802;27;20493;-95
2023/09/09 09:25:40;;;;;;;7.85;3.40;;;;;;;30.04;37.96;98782.28;5121170;27;20075;-95
2023/09/09 09:28:06;;;;;;;7.18;3.33;;;;;;;29.73;36.53;98716.19;5123984;27;20134;-96
2023/09/09 09:30:33;;;;;;;5.40;4.50;;;;;;;30.36;35.47;98759.63;5123863;27;20463;-95
2023/09/09 09:32:59;;;;;;;7.40;3.33;;;;;;;30.04;35.25;98772.16;5127107;27;20038;-94
2023/09/09 09:35:25;;;;;;;5.85;3.35;;;;;;;29.92;34.71;98729.63;5121360;27;20039;-94
2023/09/09 09:37:53;;;;;;;5.53;2.97;;;;;;;30.49;33.54;98765.47;5121411;27;20182;-94
2023/09/09 09:40:20;;;;;;;5.03;3.28;;;;;;;30.44;33.55;98734.91;5110828;28;20064;-93
2023/09/09 09:42:46;;;;;;;8.23;3.55;;;;;;;30.23;34.18;98760.06;5116399;27;20019;-93
2023/09/09 09:45:13;;;;;;;6.20;3.63;;;;;;;30.48;33.47;98744.53;5120007;27;20031;-94
2023/09/09 09:47:43;;;;;;;5.05;3.20;;;;;;;30.56;33.02;98743.69;5120086;27;20088;-94
2023/09/09 09:50:17;;;;;;;5.82;3.60;;;;;;;30.00;33.20;98748.84;5120421;27;20046;-95
2023/09/09 09:52:48;;;;;;;8.65;3.22;;;;;;;30.07;33.38;98716.97;5124901;27;20071;-94
2023/09/09 09:55:17;;;;;;;5.28;3.13;;;;;;;30.29;33.19;98721.00;5118059;27;20050;-95
2023/09/09 09:57:45;;;;;;;4.32;3.03;;;;;;;30.72;32.28;98726.38;5126167;27;20035;-95
2023/09/09 10:00:12;;;;;;;4.20;3.17;;;;;;;30.96;31.44;98727.44;5124504;27;20168;-95
2023/09/09 10:02:40;;;;;;;5.57;3.58;;;;;;;30.65;32.53;98731.69;5125849;27;20054;-95
2023/09/09 10:05:12;;;;;;;8.40;3.75;;;;;;;29.99;32.27;98727.06;5125414;27;20137;-95
2023/09/09 10:07:41;;;;;;;6.28;4.10;;;;;;;30.22;32.64;98732.78;5126534;27;20382;-95
2023/09/09 10:10:13;;;;;;;8.13;3.60;;;;;;;29.89;33.79;98760.97;5125498;28;20043;-94
2023/09/09 10:12:46;;;;;;;4.43;2.75;;;;;;;30.48;33.27;98705.25;5121736;27;20053;-95
2023/09/09 10:15:13;;;;;;;5.07;3.20;;;;;;;30.63;31.60;98691.72;5122660;27;20039;-96
2023/09/09 10:17:41;;;;;;;4.85;3.22;;;;;;;31.01;30.46;98714.91;5123584;27;20047;-96
2023/09/09 10:20:08;;;;;;;5.10;3.10;;;;;;;30.32;31.92;98694.25;5123321;28;20111;-95
2023/09/09 10:22:36;;;;;;;5.40;3.85;;;;;;;30.28;32.33;98707.47;5124144;28;20393;-95
2023/09/09 10:25:04;;;;;;;5.15;3.72;;;;;;;30.16;31.92;98738.94;5129563;28;20043;-95
2023/09/09 10:27:30;;;;;;;4.43;3.20;;;;;;;30.71;32.24;98702.72;5125573;28;20736;-95
2023/09/09 10:30:03;;;;;;;6.63;3.10;;;;;;;30.84;31.05;98703.03;5124953;28;20198;-96
2023/09/09 10:32:40;;;;;;;5.25;3.92;;;;;;;30.68;31.46;98687.41;5107865;28;20112;-96
2023/09/09 10:42:02;;;;;;;4.68;3.10;;;;;;;29.74;32.53;98687.75;5048142;28;20079;-95
2023/09/09 10:44:31;;;;;;;5.47;3.05;;;;;;;29.74;32.88;98706.94;5045802;28;20041;-96
2023/09/09 10:46:58;;;;;;;4.82;3.50;;;;;;;30.03;31.88;98677.19;5049832;28;20052;-95
2023/09/09 10:49:26;;;;;;;7.05;3.25;;;;;;;30.23;32.12;98677.78;5050196;28;20144;-96
2023/09/09 10:51:56;;;;;;;5.68;3.63;;;;;;;30.87;31.94;98719.19;5044971;28;20045;-96
2023/09/09 10:54:24;;;;;;;5.03;3.60;;;;;;;30.04;32.34;98678.94;5046848;28;20051;-96
2023/09/09 10:56:52;;;;;;;4.93;3.35;;;;;;;30.10;32.80;98694.72;5048652;28;20068;-96
2023/09/09 10:59:31;;;;;;;5.72;3.55;;;;;;;30.19;32.11;98672.78;5051173;28;20041;-95
2023/09/09 11:02:11;;;;;;;7.43;3.40;;;;;;;30.00;33.13;98658.34;5069017;28;20045;-96
2023/09/09 11:08:33;;;;;;;4.75;3.35;;;;;;;30.03;32.84;98663.50;5035454;28;20036;-96
2023/09/09 11:11:08;;;;;;;6.38;3.30;;;;;;;30.49;32.04;98691.38;5041346;28;20035;-96
2023/09/09 11:13:48;;;;;;;5.60;3.08;;;;;;;30.64;31.47;98686.06;5059887;27;20024;-94
2023/09/09 11:16:33;;;;;;;6.35;3.20;;;;;;;30.84;31.39;98667.34;5135534;27;20027;-95
2023/09/09 11:19:09;;;;;;;6.32;3.53;;;;;;;31.50;31.47;98722.19;5133900;27;20039;-94
2023/09/09 11:21:41;;;;;;;4.85;3.03;;;;;;;31.17;31.35;98655.47;5135911;27;20043;-94
2023/09/09 11:24:08;;;;;;;4.63;2.83;;;;;;;31.19;30.86;98664.41;5134020;27;20043;-94
2023/09/09 11:26:36;;;;;;;4.43;2.95;;;;;;;31.38;29.81;98690.59;5131137;27;20027;-93
2023/09/09 11:29:04;;;;;;;4.88;3.20;;;;;;;31.61;29.80;98675.06;5142370;27;20039;-96
2023/09/09 11:31:30;;;;;;;6.32;3.35;;;;;;;30.71;30.94;98647.81;5141174;27;20031;-94
2023/09/09 11:33:56;;;;;;;3.55;2.80;;;;;;;30.78;30.36;98665.28;5129138;27;20039;-95
2023/09/09 11:36:24;;;;;;;7.00;3.10;;;;;;;31.06;30.07;98671.28;5127609;27;20035;-94
2023/09/09 11:38:53;;;;;;;4.53;3.10;;;;;;;31.39;30.71;98689.56;5129762;27;20047;-95
2023/09/09 11:41:20;;;;;;;4.90;3.80;;;;;;;30.72;29.99;98668.72;5126245;27;20449;-94
2023/09/09 11:43:57;;;;;;;3.97;2.90;;;;;;;30.94;30.22;98697.38;5122970;27;20035;-93